createdAt,value
2023-05-10T00:01:16.112Z,11.52
2023-05-10T00:03:42.937Z,11.17
2023-05-10T00:06:09.656Z,11.49
2023-05-10T00:08:36.368Z,10.88
2023-05-10T00:11:02.984Z,11.11
2023-05-10T00:13:29.615Z,10.54
2023-05-10T00:15:56.518Z,10.98
2023-05-10T00:18:23.373Z,10.44
2023-05-10T00:20:50.210Z,10.97
2023-05-10T00:23:16.812Z,11.76
2023-05-10T00:25:43.597Z,11.61
2023-05-10T00:28:10.164Z,11.70
2023-05-10T00:30:36.810Z,11.97
2023-05-10T00:33:03.981Z,11.10
2023-05-10T00:35:30.709Z,11.93
2023-05-10T00:37:57.270Z,11.86
2023-05-10T00:40:24.049Z,10.96
2023-05-10T00:42:51.839Z,11.20
2023-05-10T00:45:18.666Z,11.52
2023-05-10T00:47:45.346Z,11.39
2023-05-10T00:50:12.149Z,11.75
2023-05-10T00:52:38.932Z,11.47
2023-05-10T00:55:07.062Z,11.46
2023-05-10T00:57:33.918Z,11.68
2023-05-10T01:00:00.669Z,11.36
2023-05-10T01:02:27.335Z,11.42
2023-05-10T01:04:54.078Z,11.40
2023-05-10T01:07:20.836Z,11.40
2023-05-10T01:09:48.169Z,9.75
2023-05-10T01:12:16.271Z,10.96
2023-05-10T01:14:43.497Z,11.08
2023-05-10T01:17:12.074Z,11.30
2023-05-10T01:19:39.297Z,11.24
2023-05-10T01:22:17.760Z,11.18
2023-05-10T01:25:06.131Z,11.46
2023-05-10T01:27:56.048Z,10.96
2023-05-10T01:30:34.553Z,9.99
2023-05-10T01:33:24.300Z,10.36
2023-05-10T01:36:10.114Z,10.70
2023-05-10T01:38:44.146Z,11.56
2023-05-10T01:41:33.432Z,11.66
2023-05-10T01:44:14.473Z,11.81
2023-05-10T01:46:41.937Z,11.51
2023-05-10T01:49:26.593Z,11.35
2023-05-10T01:51:57.952Z,11.70
2023-05-10T01:54:25.726Z,11.38
2023-05-10T01:57:06.552Z,10.55
2023-05-10T01:59:38.054Z,11.25
2023-05-10T02:02:06.979Z,11.11
2023-05-10T02:04:36.385Z,11.51
2023-05-10T02:07:03.427Z,11.77
2023-05-10T02:09:33.094Z,11.94
2023-05-10T02:12:03.595Z,10.25
2023-05-10T02:14:33.365Z,10.12
2023-05-10T02:17:01.009Z,10.88
2023-05-10T02:19:30.048Z,11.58
2023-05-10T02:21:58.336Z,11.96
2023-05-10T02:24:26.233Z,10.65
2023-05-10T02:26:56.744Z,10.77
2023-05-10T02:29:26.230Z,10.60
2023-05-10T02:31:54.319Z,10.60
2023-05-10T02:34:24.340Z,10.82
2023-05-10T02:36:52.121Z,10.74
2023-05-10T02:39:20.728Z,9.50
2023-05-10T02:41:49.858Z,10.27
2023-05-10T02:44:19.599Z,9.85
2023-05-10T02:46:46.812Z,10.47
2023-05-10T02:49:13.922Z,9.84
2023-05-10T02:51:46.149Z,10.46
2023-05-10T02:54:19.613Z,10.69
2023-05-10T02:56:54.808Z,10.85
2023-05-10T02:59:21.482Z,10.02
2023-05-10T03:01:48.344Z,10.37
2023-05-10T03:04:15.113Z,10.94
2023-05-10T03:06:42.413Z,10.51
2023-05-10T03:09:10.527Z,10.26
2023-05-10T03:11:55.671Z,10.66
2023-05-10T03:14:50.453Z,10.81
2023-05-10T03:17:48.180Z,10.61
2023-05-10T03:20:26.959Z,10.28
2023-05-10T03:23:03.900Z,9.85
2023-05-10T03:25:32.161Z,9.15
2023-05-10T03:28:00.872Z,9.56
2023-05-10T03:30:27.968Z,10.06
2023-05-10T03:32:55.291Z,8.95
2023-05-10T03:35:22.029Z,9.72
2023-05-10T03:37:48.621Z,9.67
2023-05-10T03:40:15.633Z,9.37
2023-05-10T03:42:42.536Z,9.70
2023-05-10T03:45:09.958Z,9.36
2023-05-10T03:47:36.593Z,9.99
2023-05-10T03:50:03.540Z,9.47
2023-05-10T03:52:30.167Z,9.95
2023-05-10T03:54:56.797Z,10.05
2023-05-10T03:57:23.453Z,9.99
2023-05-10T03:59:50.099Z,10.34
2023-05-10T04:02:16.737Z,9.58
2023-05-10T04:04:43.334Z,8.91
2023-05-10T04:07:11.415Z,9.27
2023-05-10T04:09:38.025Z,9.84
2023-05-10T04:12:04.861Z,9.64
2023-05-10T04:14:31.476Z,9.90
2023-05-10T04:16:58.152Z,9.91
2023-05-10T04:19:24.871Z,9.64
2023-05-10T04:21:51.482Z,9.23
2023-05-10T04:24:18.155Z,9.40
2023-05-10T04:26:44.864Z,9.84
2023-05-10T04:29:11.455Z,9.75
2023-05-10T04:31:38.240Z,10.12
2023-05-10T04:34:04.961Z,8.73
2023-05-10T04:36:33.448Z,9.69
2023-05-10T04:39:00.169Z,9.72
2023-05-10T04:41:26.980Z,9.36
2023-05-10T04:43:53.677Z,9.06
2023-05-10T04:46:20.389Z,9.41
2023-05-10T04:48:47.095Z,9.31
2023-05-10T04:51:13.758Z,10.33
2023-05-10T04:53:41.789Z,10.17
2023-05-10T04:56:08.609Z,10.43
2023-05-10T04:58:35.302Z,10.65
2023-05-10T05:01:11.755Z,10.69
2023-05-10T05:03:38.498Z,10.78
2023-05-10T05:06:05.492Z,10.32
2023-05-10T05:08:32.253Z,10.20
2023-05-10T05:10:58.905Z,9.87
2023-05-10T05:13:25.553Z,9.86
2023-05-10T05:15:52.367Z,10.42
2023-05-10T05:18:18.994Z,10.18
2023-05-10T05:20:45.617Z,10.43
2023-05-10T05:23:12.250Z,10.00
2023-05-10T05:25:39.052Z,10.56
2023-05-10T05:28:05.659Z,9.47
2023-05-10T05:30:32.622Z,10.35
2023-05-10T05:32:59.284Z,10.21
2023-05-10T05:35:25.989Z,10.36
2023-05-10T05:37:52.555Z,9.34
2023-05-10T05:40:19.209Z,10.51
2023-05-10T05:42:45.879Z,10.53
2023-05-10T05:45:14.323Z,10.60
2023-05-10T05:47:41.302Z,10.25
2023-05-10T05:50:08.272Z,10.63
2023-05-10T05:52:35.027Z,10.82
2023-05-10T05:55:02.518Z,10.22
2023-05-10T05:57:29.167Z,10.72
2023-05-10T05:59:55.795Z,10.33
2023-05-10T06:02:22.539Z,10.69
2023-05-10T06:04:49.234Z,10.52
2023-05-10T06:07:15.843Z,10.26
2023-05-10T06:09:42.494Z,10.30
2023-05-10T06:12:09.081Z,11.37
2023-05-10T06:14:35.644Z,10.67
2023-05-10T06:17:05.071Z,10.42
2023-05-10T06:19:31.983Z,10.86
2023-05-10T06:21:58.576Z,9.85
2023-05-10T06:24:25.192Z,10.14
2023-05-10T06:26:52.017Z,9.92
2023-05-10T06:29:18.678Z,10.48
2023-05-10T06:31:45.398Z,10.23
2023-05-10T06:34:12.757Z,10.08
2023-05-10T06:36:39.404Z,11.14
2023-05-10T06:39:06.725Z,11.65
2023-05-10T06:41:33.284Z,11.54
2023-05-10T06:43:59.854Z,11.87
2023-05-10T06:46:26.923Z,11.13
2023-05-10T06:48:53.721Z,11.86
2023-05-10T06:51:22.143Z,11.77
2023-05-10T06:53:48.768Z,10.62
2023-05-10T06:56:15.429Z,10.99
2023-05-10T06:58:42.053Z,10.41
2023-05-10T07:01:09.341Z,9.74
2023-05-10T07:03:36.348Z,9.58
2023-05-10T07:06:13.322Z,10.44
2023-05-10T07:08:45.240Z,9.92
2023-05-10T07:11:11.905Z,10.98
2023-05-10T07:13:40.205Z,11.03
2023-05-10T07:16:07.499Z,11.36
2023-05-10T07:18:34.690Z,11.12
2023-05-10T07:21:01.350Z,11.59
2023-05-10T07:23:28.146Z,12.15
2023-05-10T07:25:55.070Z,12.33
2023-05-10T07:28:21.751Z,12.33
2023-05-10T07:30:48.398Z,12.65
2023-05-10T07:33:15.634Z,12.21
2023-05-10T07:35:42.820Z,11.14
2023-05-10T07:38:09.571Z,10.69
2023-05-10T07:40:36.292Z,11.16
2023-05-10T07:43:03.408Z,11.91
2023-05-10T07:45:30.206Z,10.95
2023-05-10T07:47:57.016Z,11.62
2023-05-10T07:50:23.903Z,12.19
2023-05-10T07:52:50.527Z,11.51
2023-05-10T07:55:19.219Z,12.04
2023-05-10T07:57:45.887Z,11.92
2023-05-10T08:00:14.572Z,12.20
2023-05-10T08:02:41.956Z,11.94
2023-05-10T08:05:08.947Z,11.65
2023-05-10T08:07:35.555Z,12.25
2023-05-10T08:10:03.427Z,11.35
2023-05-10T08:12:30.141Z,11.58
2023-05-10T08:14:56.765Z,11.30
2023-05-10T08:17:24.701Z,11.36
2023-05-10T08:19:51.508Z,11.58
2023-05-10T08:22:18.103Z,12.00
2023-05-10T08:24:44.734Z,11.72
2023-05-10T08:27:11.337Z,10.55
2023-05-10T08:29:48.864Z,11.72
2023-05-10T08:32:15.980Z,11.92
2023-05-10T08:34:42.593Z,12.38
2023-05-10T08:37:09.362Z,12.60
2023-05-10T08:39:36.680Z,11.76
2023-05-10T08:42:05.979Z,10.76
2023-05-10T08:44:37.661Z,10.93
2023-05-10T08:47:07.668Z,11.45
2023-05-10T08:49:35.075Z,11.45
2023-05-10T08:52:06.626Z,10.94
2023-05-10T08:54:34.429Z,11.56
2023-05-10T08:57:02.013Z,10.79
2023-05-10T08:59:29.504Z,11.13
2023-05-10T09:01:58.802Z,10.90
2023-05-10T09:04:25.943Z,11.20
2023-05-10T09:06:52.936Z,11.32
2023-05-10T09:09:21.438Z,12.51
2023-05-10T09:11:48.569Z,11.72
2023-05-10T09:14:16.305Z,11.60
2023-05-10T09:16:43.669Z,11.00
2023-05-10T09:19:10.635Z,11.60
2023-05-10T09:21:39.314Z,11.88
2023-05-10T09:24:09.501Z,12.77
2023-05-10T09:26:37.474Z,11.90
2023-05-10T09:29:04.420Z,11.84
2023-05-10T09:31:57.431Z,11.67
2023-05-10T09:34:35.742Z,10.95
2023-05-10T09:37:05.618Z,11.52
2023-05-10T09:39:37.225Z,12.11
2023-05-10T09:42:09.044Z,12.05
2023-05-10T09:44:36.650Z,12.28
2023-05-10T09:47:03.979Z,11.51
2023-05-10T09:49:31.145Z,11.00
2023-05-10T09:52:08.083Z,12.25
2023-05-10T09:54:35.458Z,11.66
2023-05-10T09:57:02.290Z,11.00
2023-05-10T09:59:30.233Z,12.12
2023-05-10T10:01:59.163Z,11.60
2023-05-10T10:04:26.557Z,11.61
2023-05-10T10:07:05.982Z,12.52
2023-05-10T10:09:33.840Z,12.78
2023-05-10T10:12:04.864Z,12.34
2023-05-10T10:14:31.688Z,13.29
2023-05-10T10:19:33.911Z,11.35
2023-05-10T10:22:01.518Z,11.71
2023-05-10T10:24:28.149Z,11.60
2023-05-10T10:27:03.278Z,12.08
2023-05-10T10:29:32.739Z,12.11
2023-05-10T10:32:45.906Z,12.69
2023-05-10T10:35:12.629Z,13.12
2023-05-10T10:37:46.941Z,12.68
2023-05-10T10:40:34.897Z,12.77
2023-05-10T10:43:25.366Z,12.94
2023-05-10T10:46:12.646Z,13.47
2023-05-10T10:48:39.346Z,12.74
2023-05-10T10:51:06.181Z,12.06
2023-05-10T10:53:33.521Z,12.95
2023-05-10T10:56:11.196Z,11.73
2023-05-10T10:58:39.455Z,12.54
2023-05-10T11:01:13.298Z,12.58
2023-05-10T11:03:40.028Z,13.26
2023-05-10T11:06:07.155Z,12.54
2023-05-10T11:08:36.960Z,12.80
2023-05-10T11:11:10.516Z,13.62
2023-05-10T11:13:50.967Z,13.91
2023-05-10T11:16:25.935Z,13.70
2023-05-10T11:19:00.024Z,13.71
2023-05-10T11:21:27.206Z,13.37
2023-05-10T11:23:57.595Z,12.64
2023-05-10T11:26:27.116Z,12.34
2023-05-10T11:28:56.457Z,12.49
2023-05-10T11:31:24.036Z,13.18
2023-05-10T11:33:53.158Z,13.24
2023-05-10T11:36:26.930Z,12.90
2023-05-10T11:38:54.487Z,13.32
2023-05-10T11:41:24.452Z,13.40
2023-05-10T11:43:53.094Z,13.59
2023-05-10T11:46:22.830Z,11.51
2023-05-10T11:48:55.658Z,12.69
2023-05-10T11:51:24.134Z,12.75
2023-05-10T11:53:55.969Z,12.83
2023-05-10T11:56:24.494Z,11.91
2023-05-10T11:58:56.798Z,12.67
2023-05-10T12:01:24.850Z,13.15
2023-05-10T12:03:52.602Z,12.81
2023-05-10T12:06:23.107Z,12.36
2023-05-10T12:08:53.659Z,11.69
2023-05-10T12:11:21.945Z,12.46
2023-05-10T12:13:48.889Z,12.22
2023-05-10T12:16:23.572Z,12.18
2023-05-10T12:18:54.648Z,12.14
2023-05-10T12:21:22.213Z,11.64
2023-05-10T12:23:53.834Z,12.47
2023-05-10T12:26:24.320Z,12.79
2023-05-10T12:28:51.117Z,12.07
2023-05-10T12:31:17.837Z,12.86
2023-05-10T12:33:45.712Z,13.80
2023-05-10T12:36:14.058Z,11.34
2023-05-10T12:38:48.618Z,12.62
2023-05-10T12:41:17.775Z,12.33
2023-05-10T12:43:46.438Z,12.60
2023-05-10T12:46:18.084Z,12.76
2023-05-10T12:48:47.297Z,12.90
2023-05-10T12:51:16.706Z,13.15
2023-05-10T12:53:46.163Z,11.43
2023-05-10T12:56:13.984Z,12.00
2023-05-10T12:58:40.743Z,11.90
2023-05-10T13:01:07.544Z,11.65
2023-05-10T13:03:34.290Z,12.27
2023-05-10T13:06:01.025Z,12.86
2023-05-10T13:08:27.808Z,11.62
2023-05-10T13:10:54.468Z,12.00
2023-05-10T13:13:21.179Z,12.71
2023-05-10T13:15:47.767Z,12.01
2023-05-10T13:18:14.561Z,11.58
2023-05-10T13:20:41.320Z,12.47
2023-05-10T13:23:07.895Z,13.28
2023-05-10T13:25:35.419Z,13.07
2023-05-10T13:28:02.486Z,12.68
2023-05-10T13:30:30.217Z,12.86
2023-05-10T13:32:57.028Z,13.71
2023-05-10T13:35:23.824Z,12.73
2023-05-10T13:37:50.589Z,12.94
2023-05-10T13:40:18.263Z,13.14
2023-05-10T13:42:44.985Z,11.92
2023-05-10T13:45:13.393Z,12.15
2023-05-10T13:47:40.172Z,11.59
2023-05-10T13:50:07.864Z,12.50
2023-05-10T13:52:34.579Z,12.25
2023-05-10T13:55:03.530Z,12.11
2023-05-10T13:57:31.304Z,12.39
2023-05-10T13:59:58.364Z,12.35
2023-05-10T14:02:25.690Z,12.54
2023-05-10T14:04:52.567Z,12.69
2023-05-10T14:07:19.505Z,12.39
2023-05-10T14:09:46.180Z,12.57
2023-05-10T14:12:12.871Z,11.81
2023-05-10T14:14:40.078Z,11.79
2023-05-10T14:17:06.827Z,12.17
2023-05-10T14:19:34.949Z,12.90
2023-05-10T14:22:02.406Z,12.40
2023-05-10T14:24:29.079Z,12.76
2023-05-10T14:26:55.707Z,12.41
2023-05-10T14:29:23.122Z,12.59
2023-05-10T14:31:49.794Z,12.46
2023-05-10T14:34:16.642Z,12.65
2023-05-10T14:36:43.248Z,12.15
2023-05-10T14:39:11.182Z,11.99
2023-05-10T14:41:38.187Z,12.83
2023-05-10T14:44:04.816Z,12.98
2023-05-10T14:46:31.473Z,13.23
2023-05-10T14:48:58.141Z,12.21
2023-05-10T14:51:24.707Z,11.70
2023-05-10T14:53:51.317Z,12.57
2023-05-10T14:56:18.161Z,12.79
2023-05-10T14:58:44.824Z,13.16
2023-05-10T15:01:12.120Z,13.32
2023-05-10T15:03:39.246Z,12.86
2023-05-10T15:06:06.746Z,13.04
2023-05-10T15:08:33.371Z,13.03
2023-05-10T15:10:59.995Z,13.02
2023-05-10T15:13:26.617Z,12.98
2023-05-10T15:15:53.299Z,13.32
2023-05-10T15:18:19.954Z,13.39
2023-05-10T15:20:46.597Z,12.86
2023-05-10T15:23:13.542Z,11.49
2023-05-10T15:25:40.524Z,11.96
2023-05-10T15:28:07.164Z,12.86
2023-05-10T15:30:33.761Z,12.81
2023-05-10T15:33:00.479Z,12.52
2023-05-10T15:35:28.089Z,12.03
2023-05-10T15:37:54.707Z,12.91
2023-05-10T15:40:21.320Z,12.33
2023-05-10T15:42:47.908Z,12.14
2023-05-10T15:45:15.246Z,12.18
2023-05-10T15:47:41.945Z,12.64
2023-05-10T15:50:09.705Z,13.13
2023-05-10T15:52:37.168Z,13.54
2023-05-10T15:55:04.260Z,13.00
2023-05-10T15:57:30.966Z,12.79
2023-05-10T15:59:57.957Z,12.29
2023-05-10T16:02:24.738Z,11.53
2023-05-10T16:04:51.808Z,11.68
2023-05-10T16:07:18.503Z,12.60
2023-05-10T16:09:45.178Z,13.33
2023-05-10T16:12:11.908Z,13.18
2023-05-10T16:14:38.486Z,13.26
2023-05-10T16:17:05.285Z,13.05
2023-05-10T16:19:32.210Z,12.37
2023-05-10T16:21:59.043Z,13.02
2023-05-10T16:24:26.369Z,13.25
2023-05-10T16:26:53.130Z,12.76
2023-05-10T16:29:19.786Z,13.03
2023-05-10T16:31:46.462Z,12.81
2023-05-10T16:34:13.081Z,12.68
2023-05-10T16:36:39.740Z,12.19
2023-05-10T16:39:06.383Z,12.12
2023-05-10T16:41:34.508Z,12.84
2023-05-10T16:44:01.834Z,12.28
2023-05-10T16:46:28.545Z,12.98
2023-05-10T16:48:55.234Z,13.25
2023-05-10T16:51:21.877Z,12.77
2023-05-10T16:53:48.529Z,13.14
2023-05-10T16:56:17.718Z,13.28
2023-05-10T16:58:44.513Z,13.76
2023-05-10T17:01:11.192Z,13.70
2023-05-10T17:03:37.993Z,13.50
2023-05-10T17:06:07.180Z,13.63
2023-05-10T17:08:33.937Z,13.39
2023-05-10T17:11:04.707Z,13.35
2023-05-10T17:13:31.950Z,13.57
2023-05-10T17:15:58.687Z,13.58
2023-05-10T17:18:26.844Z,13.51
2023-05-10T17:20:53.553Z,13.62
2023-05-10T17:23:20.340Z,13.76
2023-05-10T17:25:47.070Z,13.85
2023-05-10T17:28:13.702Z,13.83
2023-05-10T17:30:40.343Z,13.87
2023-05-10T17:33:07.082Z,13.92
2023-05-10T17:35:34.195Z,13.98
2023-05-10T17:38:01.028Z,13.85
2023-05-10T17:40:27.746Z,13.79
2023-05-10T17:42:54.392Z,13.97
2023-05-10T17:45:21.133Z,14.01
2023-05-10T17:47:47.810Z,13.68
2023-05-10T17:50:14.411Z,13.64
2023-05-10T17:52:41.318Z,13.67
2023-05-10T17:55:08.717Z,13.28
2023-05-10T17:57:38.094Z,13.47
2023-05-10T18:00:06.581Z,13.64
2023-05-10T18:02:33.305Z,13.63
2023-05-10T18:05:01.423Z,13.61
2023-05-10T18:07:30.109Z,13.58
2023-05-10T18:09:57.838Z,13.74
2023-05-10T18:12:24.497Z,13.86
2023-05-10T18:14:51.787Z,14.03
2023-05-10T18:17:18.424Z,13.70
2023-05-10T18:19:44.984Z,13.78
2023-05-10T18:22:11.710Z,13.76
2023-05-10T18:24:39.882Z,13.79
2023-05-10T18:27:08.723Z,13.69
2023-05-10T18:29:36.278Z,13.93
2023-05-10T18:32:03.013Z,14.05
2023-05-10T18:34:29.683Z,14.09
2023-05-10T18:36:56.517Z,13.99
2023-05-10T18:39:23.617Z,14.22
2023-05-10T18:41:50.312Z,14.06
2023-05-10T18:44:17.015Z,14.10
2023-05-10T18:46:43.729Z,13.75
2023-05-10T18:49:10.456Z,13.81
2023-05-10T18:51:37.064Z,13.25
2023-05-10T18:54:04.265Z,13.57
2023-05-10T18:56:31.003Z,13.63
2023-05-10T18:58:57.731Z,13.56
2023-05-10T19:01:24.415Z,13.95
2023-05-10T19:03:51.091Z,13.57
2023-05-10T19:06:17.774Z,14.00
2023-05-10T19:08:44.439Z,14.19
2023-05-10T19:11:11.098Z,14.10
2023-05-10T19:13:37.676Z,14.06
2023-05-10T19:16:14.322Z,14.03
2023-05-10T19:18:41.238Z,13.80
2023-05-10T19:21:10.448Z,13.77
2023-05-10T19:23:42.014Z,13.36
2023-05-10T19:26:10.711Z,13.45
2023-05-10T19:28:37.563Z,13.04
2023-05-10T19:31:04.476Z,13.24
2023-05-10T19:33:31.680Z,12.79
2023-05-10T19:35:58.335Z,12.86
2023-05-10T19:38:25.528Z,13.32
2023-05-10T19:40:58.050Z,12.11
2023-05-10T19:43:35.275Z,12.58
2023-05-10T19:46:02.877Z,12.28
2023-05-10T19:48:29.860Z,12.87
2023-05-10T19:51:01.046Z,12.78
2023-05-10T19:53:28.287Z,12.50
2023-05-10T19:55:55.579Z,12.49
2023-05-10T19:58:23.462Z,12.87
2023-05-10T20:00:50.575Z,13.00
2023-05-10T20:03:17.337Z,12.85
2023-05-10T20:05:43.947Z,12.84
2023-05-10T20:08:10.717Z,12.72
2023-05-10T20:10:37.437Z,12.20
2023-05-10T20:13:04.164Z,12.07
2023-05-10T20:15:30.996Z,12.51
2023-05-10T20:17:57.714Z,12.79
2023-05-10T20:20:24.515Z,13.09
2023-05-10T20:22:51.257Z,13.26
2023-05-10T20:25:18.745Z,12.17
2023-05-10T20:27:45.583Z,12.42
2023-05-10T20:30:13.006Z,12.83
2023-05-10T20:32:39.774Z,12.45
2023-05-10T20:35:07.242Z,12.38
2023-05-10T20:37:33.911Z,12.19
2023-05-10T20:40:00.709Z,13.01
2023-05-10T20:42:27.399Z,13.05
2023-05-10T20:44:54.045Z,12.33
2023-05-10T20:47:20.904Z,12.40
2023-05-10T20:49:47.571Z,12.81
2023-05-10T20:52:14.340Z,12.94
2023-05-10T20:54:41.063Z,13.02
2023-05-10T20:57:07.895Z,12.75
2023-05-10T20:59:34.577Z,11.82
2023-05-10T21:02:01.334Z,12.74
2023-05-10T21:04:28.216Z,13.27
2023-05-10T21:06:57.003Z,13.25
2023-05-10T21:09:23.654Z,13.64
2023-05-10T21:11:50.855Z,13.55
2023-05-10T21:14:17.548Z,13.61
2023-05-10T21:16:44.279Z,13.17
2023-05-10T21:19:11.634Z,12.65
2023-05-10T21:21:38.383Z,13.39
2023-05-10T21:24:05.350Z,13.28
2023-05-10T21:26:32.009Z,12.65
2023-05-10T21:28:59.352Z,13.24
2023-05-10T21:31:26.159Z,13.31
2023-05-10T21:33:52.867Z,13.61
2023-05-10T21:36:19.593Z,12.85
2023-05-10T21:38:46.789Z,13.33
2023-05-10T21:41:13.430Z,13.06
2023-05-10T21:43:40.162Z,12.73
2023-05-10T21:46:07.407Z,12.85
2023-05-10T21:48:34.074Z,12.56
2023-05-10T21:51:02.159Z,12.80
2023-05-10T21:53:29.036Z,12.77
2023-05-10T21:55:56.371Z,12.80
2023-05-10T21:58:23.430Z,13.48
2023-05-10T22:00:50.109Z,12.59
2023-05-10T22:03:16.949Z,13.54
2023-05-10T22:05:43.664Z,13.42
2023-05-10T22:08:10.314Z,13.47
2023-05-10T22:10:36.969Z,12.92
2023-05-10T22:13:03.677Z,12.50
2023-05-10T22:15:34.153Z,12.69
2023-05-10T22:18:03.217Z,12.78
2023-05-10T22:20:29.946Z,12.30
2023-05-10T22:22:56.574Z,13.06
2023-05-10T22:25:23.276Z,12.97
2023-05-10T22:27:49.928Z,13.13
2023-05-10T22:30:17.194Z,12.94
2023-05-10T22:32:44.237Z,13.12
2023-05-10T22:35:10.880Z,13.33
2023-05-10T22:37:37.666Z,13.37
2023-05-10T22:40:04.745Z,12.91
2023-05-10T22:42:31.377Z,13.15
2023-05-10T22:44:58.839Z,11.72
2023-05-10T22:47:25.710Z,12.49
2023-05-10T22:49:52.431Z,12.92
2023-05-10T22:52:19.185Z,12.95
2023-05-10T22:54:45.978Z,13.03
2023-05-10T22:57:12.815Z,12.69
2023-05-10T22:59:39.468Z,13.03
2023-05-10T23:02:06.816Z,12.81
2023-05-10T23:04:33.726Z,13.04
2023-05-10T23:07:00.420Z,12.85
2023-05-10T23:09:27.088Z,12.30
2023-05-10T23:11:53.785Z,11.49
2023-05-10T23:14:20.537Z,12.21
2023-05-10T23:16:47.221Z,12.59
2023-05-10T23:19:13.839Z,12.76
2023-05-10T23:21:40.922Z,11.60
2023-05-10T23:24:08.715Z,12.31
2023-05-10T23:26:35.409Z,12.43
2023-05-10T23:29:02.455Z,12.85
2023-05-10T23:31:29.212Z,12.90
2023-05-10T23:33:55.958Z,13.09
2023-05-10T23:36:22.636Z,13.12
2023-05-10T23:38:49.304Z,12.92
2023-05-10T23:41:15.914Z,13.01
2023-05-10T23:43:42.639Z,13.12
2023-05-10T23:46:09.286Z,13.40
2023-05-10T23:48:35.943Z,13.68
2023-05-10T23:51:02.657Z,12.05
2023-05-10T23:53:29.410Z,12.01
2023-05-10T23:55:56.280Z,11.75
2023-05-10T23:58:23.011Z,11.68
